createdAt,value
2023-03-21T00:00:54.000Z,2.6
2023-03-21T00:02:10.000Z,2.2
2023-03-21T00:03:26.660Z,2.4
2023-03-21T00:04:42.000Z,2.2
2023-03-21T00:05:59.000Z,2.1
2023-03-21T00:07:15.000Z,2.9
2023-03-21T00:08:31.000Z,2.4
2023-03-21T00:09:48.000Z,2.8
2023-03-21T00:11:03.436Z,2.5
2023-03-21T00:12:19.000Z,3.5
2023-03-21T00:13:36.024Z,1.8
2023-03-21T00:14:52.329Z,2.1
2023-03-21T00:16:08.000Z,2.4
2023-03-21T00:17:24.000Z,2.5
2023-03-21T00:18:41.184Z,2.8
2023-03-21T00:19:57.495Z,2.6
2023-03-21T00:21:13.784Z,2.9
2023-03-21T00:22:30.000Z,2.2
2023-03-21T00:23:46.376Z,2.3
2023-03-21T00:25:02.000Z,3.4
2023-03-21T00:26:18.961Z,3.1
2023-03-21T00:27:34.000Z,2.4
2023-03-21T00:28:50.551Z,3.4
2023-03-21T00:30:06.000Z,1.8
2023-03-21T00:31:23.000Z,2.8
2023-03-21T00:32:39.000Z,4.2
2023-03-21T00:33:55.000Z,2.5
2023-03-21T00:35:12.017Z,2.4
2023-03-21T00:36:28.309Z,3.1
2023-03-21T00:37:44.000Z,3
2023-03-21T00:39:00.000Z,2.5
2023-03-21T00:40:17.000Z,3.2
2023-03-21T00:41:33.497Z,3.3
2023-03-21T00:42:49.000Z,2.3
2023-03-21T00:44:06.085Z,3.4
2023-03-21T00:45:21.000Z,3.2
2023-03-21T00:46:37.674Z,1.9
2023-03-21T00:47:53.981Z,2.9
2023-03-21T00:49:10.000Z,2.3
2023-03-21T00:50:26.000Z,3.1
2023-03-21T00:51:42.000Z,2.7
2023-03-21T00:52:59.147Z,2.9
2023-03-21T00:54:15.451Z,2.1
2023-03-21T00:55:31.000Z,2.8
2023-03-21T00:56:48.020Z,3.8
2023-03-21T00:58:04.325Z,2.1
2023-03-21T00:59:20.620Z,2
2023-03-21T01:00:36.000Z,2.4
2023-03-21T01:01:52.000Z,2.3
2023-03-21T01:03:08.000Z,1.8
2023-03-21T01:04:24.000Z,2.8
2023-03-21T01:05:41.000Z,1.7
2023-03-21T01:06:57.410Z,3.3
2023-03-21T01:08:13.000Z,3.3
2023-03-21T01:09:29.993Z,2.3
2023-03-21T01:10:46.000Z,2.5
2023-03-21T01:12:02.000Z,1.9
2023-03-21T01:13:18.000Z,1.8
2023-03-21T01:14:35.169Z,2.4
2023-03-21T01:15:51.000Z,2.4
2023-03-21T01:17:07.000Z,2.8
2023-03-21T01:18:23.064Z,2.1
2023-03-21T01:19:39.354Z,1.6
2023-03-21T01:20:55.000Z,3.1
2023-03-21T01:22:11.000Z,2.3
2023-03-21T01:23:28.000Z,2.2
2023-03-21T01:24:44.000Z,3.1
2023-03-21T01:26:00.000Z,3.1
2023-03-21T01:27:17.000Z,3.6
2023-03-21T01:28:33.000Z,2
2023-03-21T01:29:49.699Z,1.7
2023-03-21T01:31:05.982Z,1.3
2023-03-21T01:32:22.000Z,2.1
2023-03-21T01:33:38.000Z,1.5
2023-03-21T01:34:53.000Z,1.7
2023-03-21T01:36:10.000Z,1.6
2023-03-21T01:37:26.472Z,1.1
2023-03-21T01:38:42.000Z,1.1
2023-03-21T01:39:59.062Z,1.1
2023-03-21T01:41:15.361Z,1.6
2023-03-21T01:42:31.000Z,1.4
2023-03-21T01:43:47.000Z,1.8
2023-03-21T01:45:04.223Z,1.3
2023-03-21T01:46:20.000Z,1.8
2023-03-21T01:47:36.000Z,1.4
2023-03-21T01:48:53.000Z,1.3
2023-03-21T01:50:09.408Z,1.1
2023-03-21T01:51:25.837Z,1.6
2023-03-21T01:52:42.000Z,1.5
2023-03-21T01:53:58.000Z,1.2
2023-03-21T01:55:14.702Z,1.6
2023-03-21T01:56:30.994Z,1.5
2023-03-21T01:57:47.000Z,1.3
2023-03-21T01:59:03.000Z,1.8
2023-03-21T02:00:19.865Z,1.4
2023-03-21T02:01:36.172Z,1.2
2023-03-21T02:02:52.000Z,1.7
2023-03-21T02:04:08.000Z,1.6
2023-03-21T02:05:25.000Z,1.8
2023-03-21T02:06:41.000Z,1.6
2023-03-21T02:07:56.000Z,1.9
2023-03-21T02:09:12.000Z,1.4
2023-03-21T02:10:29.255Z,1.4
2023-03-21T02:11:45.000Z,1.1
2023-03-21T02:13:01.000Z,1.8
2023-03-21T02:14:18.000Z,1
2023-03-21T02:15:34.406Z,2
2023-03-21T02:16:50.000Z,1.4
2023-03-21T02:18:07.000Z,1.7
2023-03-21T02:19:23.314Z,1.7
2023-03-21T02:20:39.597Z,0.9
2023-03-21T02:21:55.000Z,1.1
2023-03-21T02:23:12.185Z,1.3
2023-03-21T02:24:27.000Z,1.8
2023-03-21T02:25:43.000Z,1.6
2023-03-21T02:27:00.000Z,1.6
2023-03-21T02:28:16.377Z,1.2
2023-03-21T02:29:32.000Z,1.2
2023-03-21T02:30:48.000Z,1.2
2023-03-21T02:32:05.256Z,1.1
2023-03-21T02:33:21.546Z,1.7
2023-03-21T02:34:37.000Z,1.5
2023-03-21T02:35:54.000Z,0.8
2023-03-21T02:37:10.000Z,1.2
2023-03-21T02:38:26.711Z,1.2
2023-03-21T02:39:43.000Z,1.9
2023-03-21T02:40:58.000Z,1.2
2023-03-21T02:42:14.000Z,1.5
2023-03-21T02:43:30.902Z,1.6
2023-03-21T02:44:47.000Z,1.7
2023-03-21T02:46:03.487Z,1.7
2023-03-21T02:47:19.000Z,1.3
2023-03-21T02:48:36.000Z,1.3
2023-03-21T02:49:52.380Z,1.2
2023-03-21T02:51:08.660Z,0.9
2023-03-21T02:52:24.000Z,1.3
2023-03-21T02:53:41.250Z,1.2
2023-03-21T02:54:57.000Z,1.3
2023-03-21T02:56:13.838Z,1.6
2023-03-21T02:57:29.000Z,1.8
2023-03-21T02:58:45.451Z,1.6
2023-03-21T03:00:01.737Z,1.5
2023-03-21T03:01:18.000Z,1.5
2023-03-21T03:02:34.000Z,1.4
2023-03-21T03:03:50.000Z,1.5
2023-03-21T03:05:06.000Z,1.5
2023-03-21T03:06:23.197Z,2
2023-03-21T03:07:39.000Z,1.9
2023-03-21T03:08:55.786Z,0.8
2023-03-21T03:10:12.000Z,1.8
2023-03-21T03:11:28.000Z,1.3
2023-03-21T03:12:44.000Z,2
2023-03-21T03:14:00.000Z,1.4
2023-03-21T03:15:16.000Z,1
2023-03-21T03:16:32.579Z,1.7
2023-03-21T03:17:48.000Z,2.1
2023-03-21T03:19:05.000Z,1.3
2023-03-21T03:20:21.000Z,2.1
2023-03-21T03:21:37.000Z,1.5
2023-03-21T03:22:54.000Z,1.7
2023-03-21T03:24:10.335Z,1.2
2023-03-21T03:25:26.000Z,1.2
2023-03-21T03:26:42.922Z,1.6
2023-03-21T03:27:59.207Z,1.4
2023-03-21T03:29:15.499Z,1.6
2023-03-21T03:30:30.000Z,1.3
2023-03-21T03:31:47.000Z,1.7
2023-03-21T03:33:03.000Z,1.3
2023-03-21T03:34:19.000Z,0.9
2023-03-21T03:35:36.000Z,1.2
2023-03-21T03:36:51.308Z,1
2023-03-21T03:38:07.000Z,0.9
2023-03-21T03:39:23.898Z,1.6
2023-03-21T03:40:40.000Z,1.3
2023-03-21T03:41:56.481Z,1
2023-03-21T03:43:12.000Z,1.8
2023-03-21T03:44:29.065Z,1.6
2023-03-21T03:45:45.000Z,1.7
2023-03-21T03:47:01.000Z,1.4
2023-03-21T03:48:17.000Z,1.4
2023-03-21T03:49:34.000Z,1.5
2023-03-21T03:50:50.535Z,1.3
2023-03-21T03:52:06.824Z,1.4
2023-03-21T03:53:22.132Z,0.9
2023-03-21T03:54:38.431Z,2
2023-03-21T03:55:54.000Z,1.1
2023-03-21T03:57:11.000Z,2
2023-03-21T03:58:27.000Z,1.3
2023-03-21T03:59:43.000Z,1.1
2023-03-21T04:00:59.000Z,0.9
2023-03-21T04:02:16.190Z,1.6
2023-03-21T04:03:32.000Z,1.4
2023-03-21T04:04:48.000Z,1.1
2023-03-21T04:06:05.000Z,1.2
2023-03-21T04:07:21.378Z,1.5
2023-03-21T04:08:37.000Z,1.6
2023-03-21T04:09:52.977Z,0.8
2023-03-21T04:11:09.000Z,1.1
2023-03-21T04:12:25.549Z,1.1
2023-03-21T04:13:41.855Z,1.3
2023-03-21T04:14:58.156Z,0.8
2023-03-21T04:16:14.000Z,1.1
2023-03-21T04:17:30.000Z,1.5
2023-03-21T04:18:47.000Z,1.6
2023-03-21T04:20:03.000Z,1.5
2023-03-21T04:21:19.000Z,1.7
2023-03-21T04:22:35.000Z,1.8
2023-03-21T04:23:52.214Z,1.3
2023-03-21T04:25:08.491Z,1.5
2023-03-21T04:26:23.809Z,1.3
2023-03-21T04:27:40.000Z,1.8
2023-03-21T04:28:56.000Z,1.2
2023-03-21T04:30:12.000Z,1.2
2023-03-21T04:31:29.000Z,1.3
2023-03-21T04:32:45.000Z,1.2
2023-03-21T04:34:01.558Z,1.2
2023-03-21T04:35:17.861Z,1.1
2023-03-21T04:36:34.148Z,1.3
2023-03-21T04:37:50.000Z,1.1
2023-03-21T04:39:06.000Z,1.5
2023-03-21T04:40:23.024Z,1.3
2023-03-21T04:41:39.000Z,1.6
2023-03-21T04:42:54.000Z,0.9
2023-03-21T04:44:10.000Z,1.2
2023-03-21T04:45:27.000Z,1.6
2023-03-21T04:46:43.000Z,1.5
2023-03-21T04:47:59.670Z,1.4
2023-03-21T04:49:15.000Z,1.5
2023-03-21T04:50:32.000Z,1.2
2023-03-21T04:51:48.000Z,1.2
2023-03-21T04:53:04.000Z,1.2
2023-03-21T04:54:20.000Z,1.2
2023-03-21T04:55:37.000Z,1.2
2023-03-21T04:56:53.000Z,1.2
2023-03-21T04:58:09.644Z,1.6
2023-03-21T04:59:24.895Z,1.5
2023-03-21T05:00:41.141Z,0.8
2023-03-21T05:01:57.000Z,1.3
2023-03-21T05:03:13.618Z,1.3
2023-03-21T05:04:29.000Z,1
2023-03-21T05:05:46.000Z,1.1
2023-03-21T05:07:02.000Z,1.2
2023-03-21T05:08:18.000Z,1.2
2023-03-21T05:09:34.000Z,1.2
2023-03-21T05:10:51.045Z,1.1
2023-03-21T05:12:07.285Z,1.8
2023-03-21T05:13:23.000Z,1.4
2023-03-21T05:14:39.000Z,1.5
2023-03-21T05:15:55.000Z,0.9
2023-03-21T05:17:11.000Z,1.2
2023-03-21T05:18:27.513Z,1.2
2023-03-21T05:19:43.000Z,1.7
2023-03-21T05:21:00.000Z,1.2
2023-03-21T05:22:16.000Z,1.7
2023-03-21T05:23:32.476Z,1.3
2023-03-21T05:24:48.000Z,1.6
2023-03-21T05:26:04.000Z,0.8
2023-03-21T05:27:21.000Z,1.1
2023-03-21T05:28:37.000Z,1.3
2023-03-21T05:29:53.667Z,1.2
2023-03-21T05:31:09.000Z,0.8
2023-03-21T05:32:25.151Z,1.3
2023-03-21T05:33:41.412Z,0.9
2023-03-21T05:34:57.640Z,1
2023-03-21T05:36:13.000Z,1.8
2023-03-21T05:37:30.000Z,0.9
2023-03-21T05:38:46.000Z,1.2
2023-03-21T05:40:02.000Z,1
2023-03-21T05:41:18.840Z,0.7
2023-03-21T05:42:35.000Z,1
2023-03-21T05:43:51.307Z,1.4
2023-03-21T05:45:07.000Z,0.8
2023-03-21T05:46:23.806Z,0.8
2023-03-21T05:47:40.025Z,0.7
2023-03-21T05:48:55.000Z,0.8
2023-03-21T05:50:11.000Z,1.6
2023-03-21T05:51:27.000Z,1.1
2023-03-21T05:52:44.000Z,1.4
2023-03-21T05:54:00.250Z,1.3
2023-03-21T05:55:16.490Z,0.8
2023-03-21T05:56:32.736Z,0.8
2023-03-21T05:57:48.000Z,0.7
2023-03-21T05:59:05.000Z,1
2023-03-21T06:00:21.000Z,1.2
2023-03-21T06:01:37.687Z,1.1
2023-03-21T06:02:53.000Z,0.6
2023-03-21T06:04:10.158Z,1.5
2023-03-21T06:05:26.000Z,0.9
2023-03-21T06:06:41.657Z,1.6
2023-03-21T06:07:57.000Z,1.1
2023-03-21T06:09:14.000Z,0.9
2023-03-21T06:10:30.000Z,1.6
2023-03-21T06:11:46.623Z,1.6
2023-03-21T06:13:02.000Z,1.2
2023-03-21T06:14:19.000Z,1.6
2023-03-21T06:15:35.000Z,1.5
2023-03-21T06:16:51.581Z,1.2
2023-03-21T06:18:07.000Z,1.3
2023-03-21T06:19:24.000Z,1.3
2023-03-21T06:20:40.000Z,0.8
2023-03-21T06:21:56.000Z,1.3
2023-03-21T06:23:11.000Z,1
2023-03-21T06:24:28.000Z,1.9
2023-03-21T06:25:44.000Z,1.5
2023-03-21T06:27:00.520Z,0.7
2023-03-21T06:28:16.000Z,1
2023-03-21T06:29:33.000Z,0.8
2023-03-21T06:30:49.000Z,1.1
2023-03-21T06:32:05.467Z,1
2023-03-21T06:33:21.000Z,1.5
2023-03-21T06:34:37.955Z,1.3
2023-03-21T06:35:54.000Z,1.2
2023-03-21T06:37:10.429Z,0.9
2023-03-21T06:38:26.666Z,1
2023-03-21T06:39:41.930Z,1
2023-03-21T06:40:58.000Z,0.8
2023-03-21T06:42:14.397Z,1.5
2023-03-21T06:43:30.000Z,0.9
2023-03-21T06:44:46.000Z,1.1
2023-03-21T06:46:03.112Z,1.2
2023-03-21T06:47:19.000Z,0.8
2023-03-21T06:48:35.000Z,0.9
2023-03-21T06:49:51.841Z,1
2023-03-21T06:51:08.000Z,1.8
2023-03-21T06:52:24.000Z,1.4
2023-03-21T06:53:40.000Z,1.4
2023-03-21T06:54:56.000Z,0.9
2023-03-21T06:56:13.000Z,1
2023-03-21T06:57:29.397Z,1.1
2023-03-21T06:58:45.000Z,0.8
2023-03-21T07:00:01.872Z,1.3
2023-03-21T07:01:18.128Z,1.3
2023-03-21T07:02:34.000Z,0.9
2023-03-21T07:03:50.000Z,1.1
2023-03-21T07:05:06.834Z,1.1
2023-03-21T07:06:23.000Z,1
2023-03-21T07:07:39.000Z,1.4
2023-03-21T07:08:55.000Z,0.7
2023-03-21T07:10:11.789Z,1
2023-03-21T07:11:28.028Z,1.5
2023-03-21T07:12:43.293Z,1.4
2023-03-21T07:13:59.000Z,1
2023-03-21T07:15:15.000Z,1
2023-03-21T07:16:32.000Z,0.9
2023-03-21T07:17:48.000Z,1.2
2023-03-21T07:19:04.000Z,1.3
2023-03-21T07:20:20.723Z,1
2023-03-21T07:21:36.973Z,0.9
2023-03-21T07:22:53.206Z,0.7
2023-03-21T07:24:09.000Z,1.3
2023-03-21T07:25:25.000Z,1.2
2023-03-21T07:26:41.000Z,1.3
2023-03-21T07:27:58.000Z,1.2
2023-03-21T07:29:13.000Z,1.2
2023-03-21T07:30:29.000Z,1.2
2023-03-21T07:31:45.000Z,1.3
2023-03-21T07:33:02.131Z,1.9
2023-03-21T07:34:18.000Z,1.1
2023-03-21T07:35:34.620Z,2
2023-03-21T07:36:50.000Z,1.3
2023-03-21T07:38:07.000Z,1.1
2023-03-21T07:39:23.000Z,1.1
2023-03-21T07:40:39.000Z,1.8
2023-03-21T07:41:55.000Z,1.2
2023-03-21T07:43:12.051Z,1.1
2023-03-21T07:44:28.000Z,1.4
2023-03-21T07:45:43.000Z,1.3
2023-03-21T07:46:59.000Z,1.1
2023-03-21T07:48:16.029Z,1.4
2023-03-21T07:49:32.000Z,1.3
2023-03-21T07:50:48.507Z,0.8
2023-03-21T07:52:03.000Z,1
2023-03-21T07:53:20.000Z,1.3
2023-03-21T07:54:36.000Z,1.8
2023-03-21T07:55:52.000Z,1.2
2023-03-21T07:57:08.000Z,0.6
2023-03-21T07:58:24.970Z,1.2
2023-03-21T07:59:41.203Z,0.9
2023-03-21T08:00:57.000Z,0.8
2023-03-21T08:02:13.000Z,0.7
2023-03-21T08:03:29.916Z,0.9
2023-03-21T08:04:46.000Z,0.6
2023-03-21T08:06:02.401Z,0.8
2023-03-21T08:07:18.000Z,0.7
2023-03-21T08:08:33.909Z,1.3
2023-03-21T08:09:50.000Z,1
2023-03-21T08:11:06.371Z,0.5
2023-03-21T08:12:22.000Z,1.2
2023-03-21T08:13:38.860Z,0.9
2023-03-21T08:14:55.000Z,0.9
2023-03-21T08:16:11.000Z,1.4
2023-03-21T08:17:27.000Z,1.1
2023-03-21T08:18:43.806Z,0.8
2023-03-21T08:20:00.060Z,1.2
2023-03-21T08:21:16.289Z,0.8
2023-03-21T08:22:32.000Z,1.3
2023-03-21T08:23:48.000Z,0.7
2023-03-21T08:25:04.000Z,0.7
2023-03-21T08:26:20.264Z,1.2
2023-03-21T08:27:36.000Z,1.1
2023-03-21T08:28:52.000Z,1
2023-03-21T08:30:08.985Z,1.1
2023-03-21T08:31:25.236Z,0.9
2023-03-21T08:32:41.000Z,0.7
2023-03-21T08:33:57.000Z,0.8
2023-03-21T08:35:13.000Z,1.1
2023-03-21T08:36:30.181Z,0.9
2023-03-21T08:37:46.000Z,0.7
2023-03-21T08:39:02.665Z,0.8
2023-03-21T08:40:18.000Z,1.1
2023-03-21T08:41:34.000Z,0.6
2023-03-21T08:42:50.000Z,0.8
2023-03-21T08:44:06.628Z,1
2023-03-21T08:45:22.000Z,0.6
2023-03-21T08:46:39.000Z,1
2023-03-21T08:47:55.000Z,0.9
2023-03-21T08:49:11.000Z,0.5
2023-03-21T08:50:27.000Z,0.7
2023-03-21T08:51:44.073Z,0.9
2023-03-21T08:53:00.000Z,1.1
2023-03-21T08:54:16.553Z,1
2023-03-21T08:55:32.795Z,1
2023-03-21T08:56:49.024Z,1.4
2023-03-21T08:58:04.000Z,1.7
2023-03-21T08:59:20.000Z,0.5
2023-03-21T09:00:36.000Z,1.1
2023-03-21T09:01:52.999Z,1
2023-03-21T09:03:09.000Z,0.9
2023-03-21T09:04:25.000Z,1.1
2023-03-21T09:05:41.714Z,1.2
2023-03-21T09:06:57.962Z,0.9
2023-03-21T09:08:14.000Z,0.8
2023-03-21T09:09:30.000Z,0.9
2023-03-21T09:10:46.000Z,0.7
2023-03-21T09:12:02.000Z,0.7
2023-03-21T09:13:19.000Z,1.5
2023-03-21T09:14:34.410Z,0.8
2023-03-21T09:15:50.000Z,0.9
2023-03-21T09:17:06.888Z,1
2023-03-21T09:18:23.139Z,1
2023-03-21T09:19:39.371Z,0.9
2023-03-21T09:20:55.000Z,1.4
2023-03-21T09:22:11.842Z,0.9
2023-03-21T09:23:28.000Z,0.7
2023-03-21T09:24:44.000Z,0.8
2023-03-21T09:26:00.000Z,0.6
2023-03-21T09:27:16.000Z,0.6
2023-03-21T09:28:33.047Z,0.9
2023-03-21T09:29:49.280Z,0.8
2023-03-21T09:31:04.000Z,0.9
2023-03-21T09:32:20.000Z,0.8
2023-03-21T09:33:37.000Z,0.6
2023-03-21T09:34:53.000Z,1.1
2023-03-21T09:36:09.000Z,0.9
2023-03-21T09:37:25.000Z,0.8
2023-03-21T09:38:41.000Z,1
2023-03-21T09:39:58.000Z,1
2023-03-21T09:41:14.447Z,0.8
2023-03-21T09:42:30.698Z,1
2023-03-21T09:43:46.000Z,1.2
2023-03-21T09:45:03.181Z,1.1
2023-03-21T09:46:19.000Z,1.2
2023-03-21T09:47:34.000Z,1.5
2023-03-21T09:48:50.000Z,1.1
2023-03-21T09:50:07.000Z,0.9
2023-03-21T09:51:23.000Z,1.1
2023-03-21T09:52:39.625Z,0.7
2023-03-21T09:53:55.866Z,1.1
2023-03-21T09:55:12.000Z,0.7
2023-03-21T09:56:28.000Z,0.7
2023-03-21T09:57:44.000Z,1
2023-03-21T09:59:00.000Z,0.6
2023-03-21T10:00:17.000Z,1
2023-03-21T10:01:33.000Z,0.8
2023-03-21T10:02:49.540Z,1.2
2023-03-21T10:04:04.000Z,1
2023-03-21T10:05:21.042Z,1.2
2023-03-21T10:06:37.000Z,0.8
2023-03-21T10:07:53.514Z,0.9
2023-03-21T10:09:09.000Z,0.9
2023-03-21T10:10:26.000Z,0.6
2023-03-21T10:11:42.000Z,0.6
2023-03-21T10:12:58.489Z,1.1
2023-03-21T10:14:14.709Z,1
2023-03-21T10:15:30.967Z,1.2
2023-03-21T10:16:47.185Z,1
2023-03-21T10:18:03.000Z,1.3
2023-03-21T10:19:19.000Z,1
2023-03-21T10:20:34.000Z,0.7
2023-03-21T10:21:51.171Z,0.8
2023-03-21T10:23:07.414Z,0.8
2023-03-21T10:24:23.000Z,1
2023-03-21T10:25:39.883Z,0.7
2023-03-21T10:26:56.130Z,1
2023-03-21T10:28:12.366Z,0.8
2023-03-21T10:29:28.000Z,1.1
2023-03-21T10:30:44.843Z,1.4
2023-03-21T10:32:01.000Z,1
2023-03-21T10:33:17.000Z,0.7
2023-03-21T10:34:33.000Z,0.9
2023-03-21T10:35:49.000Z,1.3
2023-03-21T10:37:05.000Z,1.1
2023-03-21T10:38:21.303Z,1.4
2023-03-21T10:39:37.000Z,1
2023-03-21T10:40:53.773Z,0.8
2023-03-21T10:42:10.020Z,0.7
2023-03-21T10:43:26.256Z,1.1
2023-03-21T10:44:42.000Z,0.8
2023-03-21T10:45:58.737Z,0.7
2023-03-21T10:47:15.000Z,0.8
2023-03-21T10:48:31.000Z,1.3
2023-03-21T10:49:47.000Z,1.5
2023-03-21T10:51:03.000Z,0.9
2023-03-21T10:52:19.000Z,1.3
2023-03-21T10:53:36.303Z,1
2023-03-21T10:54:52.532Z,0.8
2023-03-21T10:56:08.000Z,1
2023-03-21T10:57:25.000Z,1.2
2023-03-21T10:58:41.259Z,1.1
2023-03-21T10:59:57.000Z,1.3
2023-03-21T11:01:13.000Z,0.6
2023-03-21T11:02:29.000Z,0.8
2023-03-21T11:03:46.206Z,0.9
2023-03-21T11:05:02.449Z,1.2
2023-03-21T11:06:18.000Z,0.9
2023-03-21T11:07:34.000Z,0.8
2023-03-21T11:08:51.000Z,0.7
2023-03-21T11:10:06.000Z,0.8
2023-03-21T11:11:22.000Z,0.8
2023-03-21T11:12:38.000Z,1
2023-03-21T11:13:55.000Z,1.3
2023-03-21T11:15:11.000Z,1
2023-03-21T11:16:27.606Z,1
2023-03-21T11:17:43.000Z,0.9
2023-03-21T11:19:00.100Z,1
2023-03-21T11:20:16.000Z,1.3
2023-03-21T11:21:32.575Z,1
2023-03-21T11:22:48.000Z,1
2023-03-21T11:24:05.040Z,0.7
2023-03-21T11:25:21.000Z,1
2023-03-21T11:26:37.645Z,0.6
2023-03-21T11:27:53.880Z,0.9
2023-03-21T11:29:10.135Z,0.9
2023-03-21T11:30:26.000Z,0.8
2023-03-21T11:31:42.603Z,0.7
2023-03-21T11:32:58.000Z,1
2023-03-21T11:34:15.000Z,0.5
2023-03-21T11:35:31.000Z,1.1
2023-03-21T11:36:47.559Z,0.8
2023-03-21T11:38:03.797Z,0.9
2023-03-21T11:39:20.000Z,1.2
2023-03-21T11:40:36.000Z,0.8
2023-03-21T11:41:52.000Z,1
2023-03-21T11:43:07.000Z,0.7
2023-03-21T11:44:24.000Z,1
2023-03-21T11:45:40.000Z,1.2
2023-03-21T11:46:56.489Z,1.2
2023-03-21T11:48:12.735Z,0.6
2023-03-21T11:49:28.966Z,1
2023-03-21T11:50:45.000Z,0.8
2023-03-21T11:52:01.461Z,0.9
2023-03-21T11:53:17.000Z,1
2023-03-21T11:54:33.927Z,0.6
2023-03-21T11:55:50.000Z,0.9
2023-03-21T11:57:06.410Z,0.9
2023-03-21T11:58:22.657Z,0.9
2023-03-21T11:59:39.018Z,0.9
2023-03-21T12:00:55.000Z,1.2
2023-03-21T12:02:11.488Z,0.8
2023-03-21T12:03:27.000Z,0.5
2023-03-21T12:04:43.967Z,0.8
2023-03-21T12:06:00.000Z,0.9
2023-03-21T12:07:15.463Z,1.3
2023-03-21T12:08:31.000Z,0.8
2023-03-21T12:09:47.942Z,0.6
2023-03-21T12:11:04.000Z,0.8
2023-03-21T12:12:20.000Z,0.9
2023-03-21T12:13:36.000Z,0.5
2023-03-21T12:14:52.897Z,0.8
2023-03-21T12:16:09.000Z,0.5
2023-03-21T12:17:25.379Z,0.7
2023-03-21T12:18:41.000Z,0.9
2023-03-21T12:19:57.859Z,0.6
2023-03-21T12:21:14.093Z,1
2023-03-21T12:22:30.338Z,0.8
2023-03-21T12:23:45.000Z,0.5
2023-03-21T12:25:01.842Z,0.7
2023-03-21T12:26:18.000Z,0.6
2023-03-21T12:27:34.314Z,0.8
2023-03-21T12:28:50.000Z,0.7
2023-03-21T12:30:06.784Z,0.6
2023-03-21T12:31:23.026Z,0.7
2023-03-21T12:32:39.267Z,0.5
2023-03-21T12:33:55.000Z,0.6
2023-03-21T12:35:11.000Z,0.9
2023-03-21T12:36:28.000Z,0.8
2023-03-21T12:37:44.000Z,0.8
2023-03-21T12:39:00.000Z,0.7
2023-03-21T12:40:16.835Z,0.4
2023-03-21T12:41:33.077Z,0.6
2023-03-21T12:42:49.311Z,1
2023-03-21T12:44:05.000Z,1
2023-03-21T12:45:21.000Z,0.4
2023-03-21T12:46:38.000Z,0.4
2023-03-21T12:47:54.269Z,1.1
2023-03-21T12:49:10.000Z,0.6
2023-03-21T12:50:26.000Z,0.7
2023-03-21T12:51:42.988Z,0.7
2023-03-21T12:52:59.213Z,0.8
2023-03-21T12:54:15.455Z,0.6
2023-03-21T12:55:31.711Z,0.5
2023-03-21T12:56:46.000Z,0.5
2023-03-21T12:58:03.000Z,0.7
2023-03-21T12:59:19.000Z,0.9
2023-03-21T13:00:35.000Z,1
2023-03-21T13:01:51.000Z,0.7
2023-03-21T13:03:08.156Z,0.6
2023-03-21T13:04:24.000Z,1
2023-03-21T13:05:40.630Z,0.6
2023-03-21T13:06:56.873Z,0.9
2023-03-21T13:08:13.000Z,0.9
2023-03-21T13:09:29.000Z,0.7
2023-03-21T13:10:45.592Z,0.5
2023-03-21T13:12:01.000Z,0.7
2023-03-21T13:13:17.000Z,0.5
2023-03-21T13:14:33.000Z,0.7
2023-03-21T13:15:49.570Z,0.5
2023-03-21T13:17:05.000Z,1.2
2023-03-21T13:18:22.037Z,0.7
2023-03-21T13:19:38.293Z,0.7
2023-03-21T13:20:54.000Z,0.5
2023-03-21T13:22:10.000Z,0.4
2023-03-21T13:23:27.003Z,0.8
2023-03-21T13:24:43.000Z,0.8
2023-03-21T13:25:59.483Z,0.5
2023-03-21T13:27:15.000Z,0.4
2023-03-21T13:28:31.965Z,0.4
2023-03-21T13:29:47.217Z,0.5
2023-03-21T13:31:03.453Z,0.5
2023-03-21T13:32:19.000Z,0.6
2023-03-21T13:33:35.931Z,0.5
2023-03-21T13:34:52.000Z,0.9
2023-03-21T13:36:08.400Z,0.6
2023-03-21T13:37:24.000Z,0.5
2023-03-21T13:38:40.883Z,0.4
2023-03-21T13:39:57.121Z,0.6
2023-03-21T13:41:13.371Z,0.3
2023-03-21T13:42:29.000Z,0.5
2023-03-21T13:43:45.000Z,0.7
2023-03-21T13:45:02.077Z,0.7
2023-03-21T13:46:17.000Z,0.5
2023-03-21T13:47:33.000Z,0.7
2023-03-21T13:48:49.000Z,0.6
2023-03-21T13:50:06.000Z,0.5
2023-03-21T13:51:22.289Z,0.4
2023-03-21T13:52:38.000Z,0.6
2023-03-21T13:53:54.772Z,0.4
2023-03-21T13:55:11.000Z,0.3
2023-03-21T13:56:27.247Z,0.5
2023-03-21T13:57:43.000Z,0.4
2023-03-21T13:58:59.732Z,0.5
2023-03-21T14:00:15.000Z,0.5
2023-03-21T14:01:32.214Z,0.5
2023-03-21T14:02:47.000Z,0.5
2023-03-21T14:04:03.704Z,0.5
2023-03-21T14:05:19.939Z,0.5
2023-03-21T14:06:36.000Z,0.9
2023-03-21T14:07:52.000Z,0.6
2023-03-21T14:09:08.000Z,0.9
2023-03-21T14:10:24.000Z,0.6
2023-03-21T14:11:41.139Z,0.5
2023-03-21T14:12:57.000Z,1
2023-03-21T14:14:13.609Z,0.4
2023-03-21T14:15:29.848Z,0.6
2023-03-21T14:16:46.000Z,0.4
2023-03-21T14:18:02.000Z,0.5
2023-03-21T14:19:17.585Z,0.6
2023-03-21T14:20:33.000Z,0.4
2023-03-21T14:21:50.000Z,0.6
2023-03-21T14:23:06.000Z,0.7
2023-03-21T14:24:22.551Z,0.8
2023-03-21T14:25:38.000Z,0.5
2023-03-21T14:26:55.016Z,0.7
2023-03-21T14:28:11.000Z,0.6
2023-03-21T14:29:27.000Z,0.7
2023-03-21T14:30:43.000Z,0.5
2023-03-21T14:31:59.979Z,0.3
2023-03-21T14:33:16.000Z,0.3
2023-03-21T14:34:32.000Z,0.5
2023-03-21T14:35:47.000Z,0.4
2023-03-21T14:37:03.000Z,0.5
2023-03-21T14:38:20.000Z,0.5
2023-03-21T14:39:36.428Z,0.6
2023-03-21T14:40:52.000Z,0.4
2023-03-21T14:42:08.909Z,0.4
2023-03-21T14:43:25.000Z,0.4
2023-03-21T14:44:41.000Z,0.4
2023-03-21T14:45:57.000Z,0.9
2023-03-21T14:47:13.864Z,0.6
2023-03-21T14:48:30.108Z,0.6
2023-03-21T14:49:46.353Z,0.4
2023-03-21T14:51:02.587Z,0.5
2023-03-21T14:52:17.842Z,0.5
2023-03-21T14:53:34.000Z,0.7
2023-03-21T14:54:50.310Z,0.5
2023-03-21T14:56:06.000Z,0.4
2023-03-21T14:57:22.793Z,0.7
2023-03-21T14:58:39.000Z,0.6
2023-03-21T14:59:55.000Z,1.3
2023-03-21T15:01:11.512Z,0.4
2023-03-21T15:02:27.753Z,0.8
2023-03-21T15:03:44.000Z,0.4
2023-03-21T15:05:00.224Z,0.6
2023-03-21T15:06:16.000Z,0.4
2023-03-21T15:07:32.000Z,0.6
2023-03-21T15:08:47.000Z,0.5
2023-03-21T15:10:04.203Z,0.8
2023-03-21T15:11:20.000Z,0.7
2023-03-21T15:12:36.689Z,0.5
2023-03-21T15:13:52.926Z,0.5
2023-03-21T15:15:09.000Z,0.6
2023-03-21T15:16:25.000Z,0.7
2023-03-21T15:17:41.637Z,0.6
2023-03-21T15:18:57.000Z,0.5
2023-03-21T15:20:14.000Z,0.5
2023-03-21T15:21:30.000Z,0.8
2023-03-21T15:22:46.000Z,0.6
2023-03-21T15:24:02.846Z,0.5
2023-03-21T15:25:18.089Z,1.2
2023-03-21T15:26:34.337Z,0.6
2023-03-21T15:27:50.566Z,0.7
2023-03-21T15:29:06.000Z,1.2
2023-03-21T15:30:23.000Z,0.8
2023-03-21T15:31:39.000Z,0.9
2023-03-21T15:32:55.000Z,0.6
2023-03-21T15:34:11.000Z,0.5
2023-03-21T15:35:28.003Z,0.6
2023-03-21T15:36:44.261Z,0.6
2023-03-21T15:38:00.000Z,0.6
2023-03-21T15:39:16.000Z,0.7
2023-03-21T15:40:32.968Z,0.7
2023-03-21T15:41:48.000Z,0.9
2023-03-21T15:43:04.459Z,0.6
2023-03-21T15:44:20.000Z,0.8
2023-03-21T15:45:36.000Z,0.8
2023-03-21T15:46:53.000Z,0.7
2023-03-21T15:48:09.414Z,0.6
2023-03-21T15:49:25.000Z,0.6
2023-03-21T15:50:41.891Z,0.7
2023-03-21T15:51:58.000Z,0.9
2023-03-21T15:53:14.000Z,0.7
2023-03-21T15:54:30.000Z,0.6
2023-03-21T15:55:46.843Z,0.8
2023-03-21T15:57:03.094Z,0.8
2023-03-21T15:58:18.343Z,1.1
2023-03-21T15:59:34.597Z,0.7
2023-03-21T16:00:50.000Z,0.6
2023-03-21T16:02:07.000Z,0.4
2023-03-21T16:03:23.000Z,0.6
2023-03-21T16:04:39.000Z,0.6
2023-03-21T16:05:55.788Z,0.7
2023-03-21T16:07:12.000Z,0.9
2023-03-21T16:08:28.000Z,0.5
2023-03-21T16:09:44.500Z,0.6
2023-03-21T16:11:00.725Z,1
2023-03-21T16:12:16.000Z,0.4
2023-03-21T16:13:33.218Z,0.7
2023-03-21T16:14:48.000Z,1.1
2023-03-21T16:16:04.000Z,0.6
2023-03-21T16:17:20.000Z,0.5
2023-03-21T16:18:37.197Z,1.3
2023-03-21T16:19:53.000Z,1
2023-03-21T16:21:09.660Z,0.6
2023-03-21T16:22:24.000Z,0.7
2023-03-21T16:23:41.170Z,0.8
2023-03-21T16:24:57.000Z,0.9
2023-03-21T16:26:13.000Z,0.6
2023-03-21T16:27:29.000Z,1.3
2023-03-21T16:28:46.138Z,1.1
2023-03-21T16:30:02.374Z,0.9
2023-03-21T16:31:18.000Z,0.9
2023-03-21T16:32:34.000Z,0.9
2023-03-21T16:33:51.088Z,0.9
2023-03-21T16:35:07.319Z,1.1
2023-03-21T16:36:23.565Z,0.7
2023-03-21T16:37:39.000Z,0.9
2023-03-21T16:38:55.000Z,0.9
2023-03-21T16:40:11.000Z,0.9
2023-03-21T16:41:27.535Z,0.8
2023-03-21T16:42:43.000Z,0.9
2023-03-21T16:44:00.002Z,0.5
2023-03-21T16:45:16.258Z,0.7
2023-03-21T16:46:32.000Z,0.8
2023-03-21T16:47:48.000Z,1
2023-03-21T16:49:04.000Z,0.6
2023-03-21T16:50:21.000Z,0.6
2023-03-21T16:51:37.444Z,1.2
2023-03-21T16:52:53.000Z,0.6
2023-03-21T16:54:09.000Z,0.6
2023-03-21T16:55:25.000Z,0.7
2023-03-21T16:56:41.431Z,0.8
2023-03-21T16:57:57.656Z,0.4
2023-03-21T16:59:13.913Z,0.9
2023-03-21T17:00:30.000Z,0.5
2023-03-21T17:01:46.000Z,0.5
2023-03-21T17:03:02.000Z,0.8
2023-03-21T17:04:18.861Z,0.7
2023-03-21T17:05:35.116Z,0.6
2023-03-21T17:06:51.352Z,0.8
2023-03-21T17:08:07.591Z,0.5
2023-03-21T17:09:23.824Z,0.6
2023-03-21T17:10:40.000Z,1.1
2023-03-21T17:11:55.305Z,0.6
2023-03-21T17:13:11.000Z,0.4
2023-03-21T17:14:27.000Z,0.7
2023-03-21T17:15:44.000Z,0.6
2023-03-21T17:17:00.259Z,0.5
2023-03-21T17:18:16.526Z,0.7
2023-03-21T17:19:32.753Z,0.7
2023-03-21T17:20:49.000Z,0.8
2023-03-21T17:22:05.223Z,0.6
2023-03-21T17:23:21.000Z,0.5
2023-03-21T17:24:37.000Z,1.2
2023-03-21T17:25:53.000Z,0.7
2023-03-21T17:27:10.000Z,1.3
2023-03-21T17:28:25.000Z,1.3
2023-03-21T17:29:41.670Z,1.4
2023-03-21T17:30:57.919Z,1.8
2023-03-21T17:32:14.163Z,1.6
2023-03-21T17:33:30.416Z,0.8
2023-03-21T17:34:46.645Z,0.7
2023-03-21T17:36:02.000Z,0.6